KALX/ALX METAR and TAF weather

Enter ICAO airport designator
Station Type Date Time Source
KALX METAR 2024/02/26 18:15 UTC NOAA

KALX 261815Z AUTO 19013G16KT 10SM CLR 21/04 A3011 RMK AO2 T02120036


Station Type Date Time Source
KALX Decoded METAR 2024/02/26 18:15 UTC NOAA

Alexander City, Thomas C Russell Field Airport, AL, United States (KALX) 32-54-53N 085-57-46W
Feb 26, 2024 - 01:15 PM EST / 2024.02.26 1815 UTC
Wind: from the S (190 degrees) at 15 MPH (13 KT) gusting to 18 MPH (16 KT):0
Visibility: 10 mile(s):0
Sky conditions: clear
Temperature: 70.2 F (21.2 C)
Dew Point: 38.5 F (3.6 C)
Relative Humidity: 31%
Pressure (altimeter): 30.11 in. Hg (1019 hPa)
ob: KALX 261815Z AUTO 19013G16KT 10SM CLR 21/04 A3011 RMK AO2 T02120036
cycle: 18

Station Type Date Time Source
KALX TAF UTC NOAA

Error!

Example: see airport list